sensor_id;sensor_type;location;lat;lon;timestamp;pressure;altitude;pressure_sealevel;temperature;humidity
42859;BME280;28505;56.970;40.998;2022-10-16T00:01:27;101112.91;;;5.62;100.00
42859;BME280;28505;56.970;40.998;2022-10-16T00:06:50;101120.28;;;5.67;100.00
42859;BME280;28505;56.970;40.998;2022-10-16T00:12:14;101145.63;;;5.76;100.00
42859;BME280;28505;56.970;40.998;2022-10-16T00:17:36;101129.69;;;5.69;100.00
42859;BME280;28505;56.970;40.998;2022-10-16T00:22:59;101131.53;;;5.69;100.00
42859;BME280;28505;56.970;40.998;2022-10-16T00:28:21;101199.19;;;6.11;100.00
42859;BME280;28505;56.970;40.998;2022-10-16T00:33:43;101121.19;;;5.60;100.00
42859;BME280;28505;56.970;40.998;2022-10-16T00:39:05;101119.13;;;5.62;100.00
42859;BME280;28505;56.970;40.998;2022-10-16T00:44:56;101203.88;;;6.16;100.00
42859;BME280;28505;56.970;40.998;2022-10-16T00:50:26;101180.47;;;5.99;100.00
42859;BME280;28505;56.970;40.998;2022-10-16T00:55:52;101176.97;;;5.99;100.00
42859;BME280;28505;56.970;40.998;2022-10-16T01:01:16;101204.44;;;6.18;100.00
42859;BME280;28505;56.970;40.998;2022-10-16T01:18:21;101206.06;;;6.19;100.00
42859;BME280;28505;56.970;40.998;2022-10-16T01:24:04;101209.31;;;6.21;100.00
42859;BME280;28505;56.970;40.998;2022-10-16T01:29:38;101210.97;;;6.22;100.00
42859;BME280;28505;56.970;40.998;2022-10-16T01:35:13;101165.34;;;5.93;100.00
42859;BME280;28505;56.970;40.998;2022-10-16T01:40:42;101139.81;;;5.79;100.00
42859;BME280;28505;56.970;40.998;2022-10-16T01:46:07;101188.72;;;6.09;100.00
42859;BME280;28505;56.970;40.998;2022-10-16T01:51:30;101209.91;;;6.23;100.00
42859;BME280;28505;56.970;40.998;2022-10-16T01:56:52;101213.88;;;6.20;100.00
42859;BME280;28505;56.970;40.998;2022-10-16T02:02:18;101207.00;;;6.13;100.00
42859;BME280;28505;56.970;40.998;2022-10-16T02:07:41;101220.03;;;6.21;100.00
42859;BME280;28505;56.970;40.998;2022-10-16T02:13:17;101215.13;;;6.18;100.00
42859;BME280;28505;56.970;40.998;2022-10-16T02:18:59;101216.91;;;6.12;100.00
42859;BME280;28505;56.970;40.998;2022-10-16T02:24:37;101225.16;;;6.10;100.00
42859;BME280;28505;56.970;40.998;2022-10-16T02:35:32;101226.44;;;6.08;100.00
42859;BME280;28505;56.970;40.998;2022-10-16T02:40:54;101222.38;;;6.05;100.00
42859;BME280;28505;56.970;40.998;2022-10-16T02:46:17;101236.91;;;6.09;100.00
42859;BME280;28505;56.970;40.998;2022-10-16T02:51:40;101233.78;;;6.13;100.00
42859;BME280;28505;56.970;40.998;2022-10-16T02:57:02;101233.31;;;6.16;100.00
42859;BME280;28505;56.970;40.998;2022-10-16T03:02:24;101234.94;;;6.17;100.00
42859;BME280;28505;56.970;40.998;2022-10-16T03:07:46;101235.75;;;6.17;100.00
42859;BME280;28505;56.970;40.998;2022-10-16T03:13:08;101244.25;;;6.14;100.00
42859;BME280;28505;56.970;40.998;2022-10-16T03:18:30;101237.63;;;6.17;100.00
42859;BME280;28505;56.970;40.998;2022-10-16T03:23:55;101240.06;;;6.18;100.00
42859;BME280;28505;56.970;40.998;2022-10-16T03:29:17;101234.47;;;6.20;100.00
42859;BME280;28505;56.970;40.998;2022-10-16T03:34:38;101239.97;;;6.25;100.00
42859;BME280;28505;56.970;40.998;2022-10-16T03:40:01;101195.13;;;5.97;100.00
42859;BME280;28505;56.970;40.998;2022-10-16T03:45:24;101219.34;;;6.14;100.00
42859;BME280;28505;56.970;40.998;2022-10-16T03:50:46;101198.69;;;5.91;100.00
42859;BME280;28505;56.970;40.998;2022-10-16T03:56:10;101181.94;;;5.83;100.00
42859;BME280;28505;56.970;40.998;2022-10-16T04:01:32;101215.81;;;6.01;100.00
42859;BME280;28505;56.970;40.998;2022-10-16T04:06:57;101263.94;;;6.31;100.00
42859;BME280;28505;56.970;40.998;2022-10-16T04:12:19;101256.38;;;6.28;100.00
42859;BME280;28505;56.970;40.998;2022-10-16T04:17:43;101183.81;;;5.83;100.00
42859;BME280;28505;56.970;40.998;2022-10-16T04:23:06;101241.91;;;6.18;100.00
42859;BME280;28505;56.970;40.998;2022-10-16T04:28:28;101237.50;;;6.12;100.00
42859;BME280;28505;56.970;40.998;2022-10-16T04:33:53;101215.25;;;5.99;100.00
42859;BME280;28505;56.970;40.998;2022-10-16T04:39:15;101250.78;;;6.30;100.00
42859;BME280;28505;56.970;40.998;2022-10-16T04:44:37;101282.69;;;6.55;100.00
42859;BME280;28505;56.970;40.998;2022-10-16T04:49:59;101280.94;;;6.61;100.00
42859;BME280;28505;56.970;40.998;2022-10-16T04:55:24;101264.28;;;6.59;100.00
42859;BME280;28505;56.970;40.998;2022-10-16T05:00:46;101290.34;;;6.75;100.00
42859;BME280;28505;56.970;40.998;2022-10-16T05:06:08;101281.38;;;6.81;100.00
42859;BME280;28505;56.970;40.998;2022-10-16T05:11:31;101277.28;;;6.90;100.00
42859;BME280;28505;56.970;40.998;2022-10-16T05:16:53;101261.91;;;6.86;100.00
42859;BME280;28505;56.970;40.998;2022-10-16T05:22:15;101283.66;;;7.01;100.00
42859;BME280;28505;56.970;40.998;2022-10-16T05:27:37;101264.72;;;6.79;100.00
42859;BME280;28505;56.970;40.998;2022-10-16T05:32:59;101259.25;;;6.74;100.00
42859;BME280;28505;56.970;40.998;2022-10-16T05:38:21;101303.94;;;7.09;100.00
42859;BME280;28505;56.970;40.998;2022-10-16T05:43:43;101309.13;;;7.27;100.00
42859;BME280;28505;56.970;40.998;2022-10-16T05:49:06;101250.88;;;7.11;100.00
42859;BME280;28505;56.970;40.998;2022-10-16T05:54:28;101314.44;;;7.96;100.00
42859;BME280;28505;56.970;40.998;2022-10-16T05:59:50;101317.28;;;8.23;100.00
42859;BME280;28505;56.970;40.998;2022-10-16T06:05:13;101314.56;;;8.52;100.00
42859;BME280;28505;56.970;40.998;2022-10-16T06:10:34;101305.56;;;8.80;100.00
42859;BME280;28505;56.970;40.998;2022-10-16T06:15:59;101310.94;;;9.02;100.00
42859;BME280;28505;56.970;40.998;2022-10-16T06:21:25;101283.75;;;8.59;100.00
42859;BME280;28505;56.970;40.998;2022-10-16T06:26:47;101316.31;;;8.80;100.00
42859;BME280;28505;56.970;40.998;2022-10-16T06:32:09;101280.16;;;8.93;100.00
42859;BME280;28505;56.970;40.998;2022-10-16T06:37:31;101267.31;;;9.22;100.00
42859;BME280;28505;56.970;40.998;2022-10-16T06:42:56;101319.59;;;9.75;100.00
42859;BME280;28505;56.970;40.998;2022-10-16T06:48:19;101315.84;;;10.08;100.00
42859;BME280;28505;56.970;40.998;2022-10-16T06:53:44;101324.28;;;10.49;100.00
42859;BME280;28505;56.970;40.998;2022-10-16T06:59:23;101324.78;;;10.88;100.00
42859;BME280;28505;56.970;40.998;2022-10-16T07:04:45;101334.81;;;10.93;100.00
42859;BME280;28505;56.970;40.998;2022-10-16T07:10:08;101337.53;;;10.93;100.00
42859;BME280;28505;56.970;40.998;2022-10-16T07:15:29;101341.41;;;11.12;100.00
42859;BME280;28505;56.970;40.998;2022-10-16T07:20:51;101336.81;;;11.13;100.00
42859;BME280;28505;56.970;40.998;2022-10-16T07:26:14;101338.56;;;11.44;100.00
42859;BME280;28505;56.970;40.998;2022-10-16T07:31:36;101345.94;;;11.80;100.00
42859;BME280;28505;56.970;40.998;2022-10-16T07:36:59;101351.97;;;12.07;97.46
42859;BME280;28505;56.970;40.998;2022-10-16T07:42:21;101257.56;;;11.65;96.90
42859;BME280;28505;56.970;40.998;2022-10-16T07:47:43;101293.31;;;12.08;92.73
42859;BME280;28505;56.970;40.998;2022-10-16T07:53:05;101332.97;;;12.69;89.82
42859;BME280;28505;56.970;40.998;2022-10-16T07:58:28;101332.97;;;12.89;87.39
42859;BME280;28505;56.970;40.998;2022-10-16T08:03:51;101340.56;;;12.61;80.90
42859;BME280;28505;56.970;40.998;2022-10-16T08:09:13;101340.34;;;12.43;79.49
42859;BME280;28505;56.970;40.998;2022-10-16T08:14:35;101293.00;;;12.19;77.22
42859;BME280;28505;56.970;40.998;2022-10-16T08:19:57;101331.94;;;12.54;75.08
42859;BME280;28505;56.970;40.998;2022-10-16T08:25:20;101308.94;;;12.41;74.36
42859;BME280;28505;56.970;40.998;2022-10-16T08:30:42;101325.97;;;12.52;74.58
42859;BME280;28505;56.970;40.998;2022-10-16T08:36:05;101320.03;;;12.55;70.98
42859;BME280;28505;56.970;40.998;2022-10-16T08:41:52;101321.13;;;12.59;70.56
42859;BME280;28505;56.970;40.998;2022-10-16T08:47:18;101325.44;;;12.55;70.40
42859;BME280;28505;56.970;40.998;2022-10-16T08:52:43;101305.97;;;12.38;70.56
42859;BME280;28505;56.970;40.998;2022-10-16T08:58:13;101320.03;;;12.60;72.84
42859;BME280;28505;56.970;40.998;2022-10-16T09:09:24;101316.75;;;12.79;68.94
42859;BME280;28505;56.970;40.998;2022-10-16T09:25:55;101306.97;;;12.88;66.10
42859;BME280;28505;56.970;40.998;2022-10-16T09:31:20;101318.88;;;12.92;66.14
42859;BME280;28505;56.970;40.998;2022-10-16T09:36:44;101316.66;;;13.04;67.19
42859;BME280;28505;56.970;40.998;2022-10-16T09:42:11;101310.47;;;12.94;65.88
42859;BME280;28505;56.970;40.998;2022-10-16T09:47:39;101318.59;;;12.99;66.69
42859;BME280;28505;56.970;40.998;2022-10-16T09:53:14;101291.25;;;12.85;65.83
42859;BME280;28505;56.970;40.998;2022-10-16T09:58:43;101308.56;;;12.99;66.02
42859;BME280;28505;56.970;40.998;2022-10-16T10:04:11;101311.53;;;13.08;65.82
42859;BME280;28505;56.970;40.998;2022-10-16T10:09:44;101302.00;;;13.10;66.72
42859;BME280;28505;56.970;40.998;2022-10-16T10:15:11;101305.22;;;13.23;65.62
42859;BME280;28505;56.970;40.998;2022-10-16T10:20:35;101303.59;;;13.27;64.79
42859;BME280;28505;56.970;40.998;2022-10-16T10:26:18;101294.66;;;13.21;65.29
42859;BME280;28505;56.970;40.998;2022-10-16T10:31:53;101302.25;;;13.19;64.63
42859;BME280;28505;56.970;40.998;2022-10-16T10:37:51;101299.81;;;13.18;64.37
42859;BME280;28505;56.970;40.998;2022-10-16T10:43:40;101297.94;;;13.13;63.70
42859;BME280;28505;56.970;40.998;2022-10-16T10:49:15;101213.72;;;12.55;64.04
42859;BME280;28505;56.970;40.998;2022-10-16T11:06:22;101275.22;;;13.04;63.60
42859;BME280;28505;56.970;40.998;2022-10-16T11:12:27;101289.56;;;13.04;61.89
42859;BME280;28505;56.970;40.998;2022-10-16T11:18:16;101248.56;;;12.72;63.41
42859;BME280;28505;56.970;40.998;2022-10-16T11:29:29;101202.13;;;12.49;61.67
42859;BME280;28505;56.970;40.998;2022-10-16T11:35:00;101258.53;;;12.81;61.03
42859;BME280;28505;56.970;40.998;2022-10-16T11:40:31;101231.28;;;12.62;62.30
42859;BME280;28505;56.970;40.998;2022-10-16T11:46:00;101249.63;;;12.81;61.59
42859;BME280;28505;56.970;40.998;2022-10-16T11:51:36;101283.66;;;12.97;61.65
42859;BME280;28505;56.970;40.998;2022-10-16T11:57:03;101280.69;;;12.99;62.47
42859;BME280;28505;56.970;40.998;2022-10-16T12:02:54;101258.00;;;12.84;62.84
42859;BME280;28505;56.970;40.998;2022-10-16T12:08:19;101272.31;;;12.90;62.41
42859;BME280;28505;56.970;40.998;2022-10-16T12:13:41;101251.25;;;12.82;62.47
42859;BME280;28505;56.970;40.998;2022-10-16T12:19:24;101262.09;;;12.77;63.78
42859;BME280;28505;56.970;40.998;2022-10-16T12:24:51;101254.81;;;12.67;63.72
42859;BME280;28505;56.970;40.998;2022-10-16T12:30:22;101248.88;;;12.55;63.83
42859;BME280;28505;56.970;40.998;2022-10-16T12:35:45;101246.50;;;12.43;64.00
42859;BME280;28505;56.970;40.998;2022-10-16T12:47:20;101214.63;;;12.09;63.83
42859;BME280;28505;56.970;40.998;2022-10-16T12:52:46;101216.28;;;11.95;64.51
42859;BME280;28505;56.970;40.998;2022-10-16T13:09:59;101241.69;;;11.89;64.85
42859;BME280;28505;56.970;40.998;2022-10-16T13:15:34;101237.84;;;11.80;65.14
42859;BME280;28505;56.970;40.998;2022-10-16T13:32:29;101177.56;;;11.18;66.54
42859;BME280;28505;56.970;40.998;2022-10-16T13:38:14;101216.75;;;11.25;67.17
42859;BME280;28505;56.970;40.998;2022-10-16T13:43:40;101226.72;;;11.25;67.70
42859;BME280;28505;56.970;40.998;2022-10-16T13:49:05;101235.06;;;11.13;67.72
42859;BME280;28505;56.970;40.998;2022-10-16T13:54:28;101230.44;;;11.04;68.45
42859;BME280;28505;56.970;40.998;2022-10-16T13:59:52;101240.91;;;10.90;68.24
42859;BME280;28505;56.970;40.998;2022-10-16T14:05:15;101241.13;;;10.73;68.84
42859;BME280;28505;56.970;40.998;2022-10-16T14:10:38;101244.25;;;10.54;69.58
42859;BME280;28505;56.970;40.998;2022-10-16T14:16:05;101246.03;;;10.39;69.99
42859;BME280;28505;56.970;40.998;2022-10-16T14:21:28;101240.78;;;10.22;71.02
42859;BME280;28505;56.970;40.998;2022-10-16T14:26:50;101236.56;;;9.99;71.78
42859;BME280;28505;56.970;40.998;2022-10-16T14:32:23;101249.97;;;9.94;72.57
42859;BME280;28505;56.970;40.998;2022-10-16T14:37:46;101248.81;;;9.79;73.28
42859;BME280;28505;56.970;40.998;2022-10-16T14:43:21;101251.34;;;9.64;73.93
42859;BME280;28505;56.970;40.998;2022-10-16T14:48:50;101260.09;;;9.49;74.81
42859;BME280;28505;56.970;40.998;2022-10-16T14:54:14;101251.34;;;9.37;75.38
42859;BME280;28505;56.970;40.998;2022-10-16T14:59:39;101262.53;;;9.24;75.97
42859;BME280;28505;56.970;40.998;2022-10-16T15:05:18;101264.78;;;9.10;76.76
42859;BME280;28505;56.970;40.998;2022-10-16T15:10:42;101244.56;;;8.85;77.29
42859;BME280;28505;56.970;40.998;2022-10-16T15:16:11;101270.16;;;8.88;78.04
42859;BME280;28505;56.970;40.998;2022-10-16T15:21:33;101270.25;;;8.76;78.38
42859;BME280;28505;56.970;40.998;2022-10-16T15:26:55;101254.50;;;8.63;79.01
42859;BME280;28505;56.970;40.998;2022-10-16T15:32:17;101240.69;;;8.37;80.05
42859;BME280;28505;56.970;40.998;2022-10-16T15:37:39;101264.97;;;8.42;80.65
42859;BME280;28505;56.970;40.998;2022-10-16T15:43:01;101238.84;;;8.21;81.54
42859;BME280;28505;56.970;40.998;2022-10-16T15:48:23;101233.63;;;8.14;81.83
42859;BME280;28505;56.970;40.998;2022-10-16T15:53:45;101250.56;;;8.15;82.91
42859;BME280;28505;56.970;40.998;2022-10-16T15:59:07;101232.00;;;7.96;83.23
42859;BME280;28505;56.970;40.998;2022-10-16T16:04:30;101251.88;;;7.95;83.82
42859;BME280;28505;56.970;40.998;2022-10-16T16:10:07;101259.94;;;7.95;84.55
42859;BME280;28505;56.970;40.998;2022-10-16T16:15:32;101264.06;;;7.86;85.41
42859;BME280;28505;56.970;40.998;2022-10-16T16:20:54;101231.03;;;7.69;85.44
42859;BME280;28505;56.970;40.998;2022-10-16T16:26:27;101235.59;;;7.68;86.87
42859;BME280;28505;56.970;40.998;2022-10-16T16:31:51;101241.66;;;7.64;87.79
42859;BME280;28505;56.970;40.998;2022-10-16T16:37:18;101206.00;;;7.35;88.16
42859;BME280;28505;56.970;40.998;2022-10-16T16:42:41;101188.81;;;7.19;88.60
42859;BME280;28505;56.970;40.998;2022-10-16T16:48:04;101166.50;;;7.01;88.85
42859;BME280;28505;56.970;40.998;2022-10-16T16:53:27;101152.34;;;6.89;89.92
42859;BME280;28505;56.970;40.998;2022-10-16T16:58:51;101188.53;;;7.03;89.92
42859;BME280;28505;56.970;40.998;2022-10-16T17:04:13;101213.19;;;7.17;90.15
42859;BME280;28505;56.970;40.998;2022-10-16T17:09:41;101193.44;;;7.07;91.28
42859;BME280;28505;56.970;40.998;2022-10-16T17:15:05;101186.72;;;6.92;91.30
42859;BME280;28505;56.970;40.998;2022-10-16T17:20:31;101167.06;;;6.75;91.97
42859;BME280;28505;56.970;40.998;2022-10-16T17:25:56;101145.25;;;6.54;92.85
42859;BME280;28505;56.970;40.998;2022-10-16T17:31:21;101239.56;;;7.09;93.74
42859;BME280;28505;56.970;40.998;2022-10-16T17:36:44;101166.66;;;6.54;94.23
42859;BME280;28505;56.970;40.998;2022-10-16T17:42:11;101218.66;;;6.82;94.54
42859;BME280;28505;56.970;40.998;2022-10-16T17:47:33;101205.41;;;6.75;94.43
42859;BME280;28505;56.970;40.998;2022-10-16T17:52:56;101237.56;;;6.87;95.50
42859;BME280;28505;56.970;40.998;2022-10-16T17:58:18;101221.97;;;6.72;96.00
42859;BME280;28505;56.970;40.998;2022-10-16T18:03:41;101236.38;;;6.83;96.29
42859;BME280;28505;56.970;40.998;2022-10-16T18:09:04;101239.31;;;6.82;96.71
42859;BME280;28505;56.970;40.998;2022-10-16T18:14:28;101214.44;;;6.57;96.96
42859;BME280;28505;56.970;40.998;2022-10-16T18:19:50;101243.06;;;6.69;97.77
42859;BME280;28505;56.970;40.998;2022-10-16T18:25:12;101200.09;;;6.40;98.61
42859;BME280;28505;56.970;40.998;2022-10-16T18:30:34;101238.16;;;6.66;98.27
42859;BME280;28505;56.970;40.998;2022-10-16T18:36:07;101150.66;;;6.07;98.84
42859;BME280;28505;56.970;40.998;2022-10-16T18:41:56;101223.03;;;6.60;99.30
42859;BME280;28505;56.970;40.998;2022-10-16T18:47:20;101193.00;;;6.34;99.84
42859;BME280;28505;56.970;40.998;2022-10-16T18:52:49;101182.75;;;6.31;100.00
42859;BME280;28505;56.970;40.998;2022-10-16T18:58:12;101149.16;;;6.12;100.00
42859;BME280;28505;56.970;40.998;2022-10-16T19:03:35;101166.47;;;6.21;100.00
42859;BME280;28505;56.970;40.998;2022-10-16T19:08:59;101189.28;;;6.35;100.00
42859;BME280;28505;56.970;40.998;2022-10-16T19:14:24;101200.09;;;6.40;100.00
42859;BME280;28505;56.970;40.998;2022-10-16T19:19:47;101122.25;;;5.95;100.00
42859;BME280;28505;56.970;40.998;2022-10-16T19:25:09;101139.59;;;6.04;100.00
42859;BME280;28505;56.970;40.998;2022-10-16T19:30:37;101215.03;;;6.48;100.00
42859;BME280;28505;56.970;40.998;2022-10-16T19:36:27;101167.06;;;6.23;100.00
42859;BME280;28505;56.970;40.998;2022-10-16T19:41:50;101154.28;;;6.13;100.00
42859;BME280;28505;56.970;40.998;2022-10-16T19:47:12;101199.06;;;6.41;100.00
42859;BME280;28505;56.970;40.998;2022-10-16T19:52:35;101175.91;;;6.23;100.00
42859;BME280;28505;56.970;40.998;2022-10-16T19:57:58;101197.09;;;6.25;100.00
42859;BME280;28505;56.970;40.998;2022-10-16T20:03:20;101208.72;;;6.30;100.00
42859;BME280;28505;56.970;40.998;2022-10-16T20:08:43;101210.50;;;6.25;100.00
42859;BME280;28505;56.970;40.998;2022-10-16T20:14:09;101205.00;;;6.20;100.00
42859;BME280;28505;56.970;40.998;2022-10-16T20:19:31;101211.19;;;6.20;100.00
42859;BME280;28505;56.970;40.998;2022-10-16T20:24:55;101210.97;;;6.22;100.00
42859;BME280;28505;56.970;40.998;2022-10-16T20:30:17;101178.81;;;5.98;100.00
42859;BME280;28505;56.970;40.998;2022-10-16T20:35:44;101211.44;;;6.19;100.00
42859;BME280;28505;56.970;40.998;2022-10-16T20:41:07;101200.38;;;6.15;100.00
42859;BME280;28505;56.970;40.998;2022-10-16T20:46:29;101197.81;;;6.08;100.00
42859;BME280;28505;56.970;40.998;2022-10-16T20:51:52;101187.44;;;6.00;100.00
42859;BME280;28505;56.970;40.998;2022-10-16T20:57:14;101197.47;;;6.05;100.00
42859;BME280;28505;56.970;40.998;2022-10-16T21:02:36;101185.81;;;5.99;100.00
42859;BME280;28505;56.970;40.998;2022-10-16T21:07:58;101179.41;;;6.00;100.00
42859;BME280;28505;56.970;40.998;2022-10-16T21:13:20;101182.09;;;6.00;100.00
42859;BME280;28505;56.970;40.998;2022-10-16T21:18:48;101179.41;;;6.00;100.00
42859;BME280;28505;56.970;40.998;2022-10-16T21:24:10;101179.31;;;5.95;100.00
42859;BME280;28505;56.970;40.998;2022-10-16T21:29:37;101174.38;;;5.92;100.00
42859;BME280;28505;56.970;40.998;2022-10-16T21:34:59;101172.75;;;5.91;100.00
42859;BME280;28505;56.970;40.998;2022-10-16T21:40:23;101164.97;;;5.90;100.00
42859;BME280;28505;56.970;40.998;2022-10-16T21:45:45;101179.59;;;5.87;100.00
42859;BME280;28505;56.970;40.998;2022-10-16T21:51:09;101179.00;;;5.85;100.00
42859;BME280;28505;56.970;40.998;2022-10-16T21:56:33;101173.56;;;5.80;100.00
42859;BME280;28505;56.970;40.998;2022-10-16T22:01:55;101168.41;;;5.78;100.00
42859;BME280;28505;56.970;40.998;2022-10-16T22:07:17;101168.66;;;5.77;100.00
42859;BME280;28505;56.970;40.998;2022-10-16T22:12:40;101167.59;;;5.78;100.00
42859;BME280;28505;56.970;40.998;2022-10-16T22:18:02;101079.97;;;5.26;100.00
42859;BME280;28505;56.970;40.998;2022-10-16T22:23:24;101099.53;;;5.38;100.00
42859;BME280;28505;56.970;40.998;2022-10-16T22:28:47;101148.19;;;5.71;100.00
42859;BME280;28505;56.970;40.998;2022-10-16T22:34:11;101138.66;;;5.63;100.00
42859;BME280;28505;56.970;40.998;2022-10-16T22:39:34;101131.28;;;5.58;100.00
42859;BME280;28505;56.970;40.998;2022-10-16T22:44:56;101155.63;;;5.69;100.00
42859;BME280;28505;56.970;40.998;2022-10-16T22:50:18;101151.31;;;5.68;100.00
42859;BME280;28505;56.970;40.998;2022-10-16T22:55:41;101145.97;;;5.68;100.00
42859;BME280;28505;56.970;40.998;2022-10-16T23:01:16;101139.34;;;5.70;100.00
42859;BME280;28505;56.970;40.998;2022-10-16T23:06:39;101140.16;;;5.71;100.00
42859;BME280;28505;56.970;40.998;2022-10-16T23:12:01;101142.25;;;5.69;100.00
42859;BME280;28505;56.970;40.998;2022-10-16T23:17:23;101139.09;;;5.72;100.00
42859;BME280;28505;56.970;40.998;2022-10-16T23:22:45;101120.25;;;5.55;100.00
42859;BME280;28505;56.970;40.998;2022-10-16T23:28:08;101127.59;;;5.59;100.00
42859;BME280;28505;56.970;40.998;2022-10-16T23:33:31;101136.44;;;5.72;100.00
42859;BME280;28505;56.970;40.998;2022-10-16T23:38:54;101124.09;;;5.71;100.00
42859;BME280;28505;56.970;40.998;2022-10-16T23:44:16;101109.78;;;5.65;100.00
42859;BME280;28505;56.970;40.998;2022-10-16T23:49:38;101116.06;;;5.71;100.00
42859;BME280;28505;56.970;40.998;2022-10-16T23:55:00;101103.75;;;5.70;100.00
